Time;durP1;ratioP1;P1;durP2;ratioP2;P2;SDS_P1;SDS_P2;PMS_P1;PMS_P2;Temp;Humidity;BMP_temperature;BMP_pressure;BME280_temperature;BME280_humidity;BME280_pressure;Samples;Min_cycle;Max_cycle;Signal;HPM_P1;HPM_P2
2023/03/04 00:01:10;;;;;;;;;;;;;;;4.98;100.00;99908.72;5073680;28;1894;-58
2023/03/04 00:03:37;;;;;;;;;;;;;;;4.99;100.00;99902.09;5073758;28;824;-58
2023/03/04 00:06:04;;;;;;;;;;;;;;;5.03;100.00;99900.22;5073742;28;883;-58
2023/03/04 00:08:31;;;;;;;;;;;;;;;5.07;100.00;99903.81;5073782;28;910;-58
2023/03/04 00:10:57;;;;;;;;;;;;;;;5.13;100.00;99898.84;5073578;28;1263;-58
2023/03/04 00:13:23;;;;;;;;;;;;;;;5.13;100.00;99896.88;5073569;28;847;-58
2023/03/04 00:15:50;;;;;;;;;;;;;;;5.11;100.00;99896.44;5073552;28;894;-58
2023/03/04 00:18:17;;;;;;;;;;;;;;;5.10;100.00;99886.66;5073425;28;922;-58
2023/03/04 00:20:45;;;;;;;;;;;;;;;5.07;100.00;99892.84;5073249;28;1968;-58
2023/03/04 00:23:11;;;;;;;;;;;;;;;5.06;100.00;99903.03;5073289;28;891;-58
2023/03/04 00:25:37;;;;;;;;;;;;;;;5.09;100.00;99893.28;5073302;28;887;-58
2023/03/04 00:28:04;;;;;;;;;;;;;;;5.13;100.00;99898.84;5073311;28;859;-58
2023/03/04 00:30:30;;;;;;;;;;;;;;;5.11;100.00;99899.97;5055228;28;1191;-58
2023/03/04 00:32:57;;;;;;;;;;;;;;;5.06;100.00;99880.31;5073300;28;910;-58
2023/03/04 00:35:24;;;;;;;;;;;;;;;5.01;100.00;99886.06;5073297;28;796;-58
2023/03/04 00:37:50;;;;;;;;;;;;;;;4.96;100.00;99884.44;5073364;28;845;-58
2023/03/04 00:40:16;;;;;;;;;;;;;;;4.97;100.00;99886.03;5073314;28;1943;-58
2023/03/04 00:42:43;;;;;;;;;;;;;;;4.97;100.00;99883.28;5073401;28;859;-58
2023/03/04 00:45:10;;;;;;;;;;;;;;;4.95;100.00;99877.38;5072889;28;855;-58
2023/03/04 00:47:36;;;;;;;;;;;;;;;4.95;100.00;99868.34;5073444;28;772;-58
2023/03/04 00:50:03;;;;;;;;;;;;;;;4.89;100.00;99857.69;5072842;28;937;-58
2023/03/04 00:52:29;;;;;;;;;;;;;;;4.86;100.00;99863.88;5072760;28;848;-58
2023/03/04 00:54:55;;;;;;;;;;;;;;;4.85;100.00;99861.53;5072621;28;844;-58
2023/03/04 00:57:22;;;;;;;;;;;;;;;4.87;100.00;99862.75;5072695;28;866;-58
2023/03/04 00:59:48;;;;;;;;;;;;;;;4.90;100.00;99850.28;5072720;28;1881;-58
2023/03/04 01:02:15;;;;;;;;;;;;;;;4.92;100.00;99847.97;5072611;28;886;-58
2023/03/04 01:04:41;;;;;;;;;;;;;;;4.88;100.00;99838.88;5072565;28;855;-58
2023/03/04 01:07:08;;;;;;;;;;;;;;;4.77;100.00;99838.69;5072496;28;847;-58
2023/03/04 01:09:35;;;;;;;;;;;;;;;4.63;100.00;99844.69;5072548;28;1221;-58
2023/03/04 01:12:02;;;;;;;;;;;;;;;4.48;100.00;99842.81;5072388;28;890;-58
2023/03/04 01:14:29;;;;;;;;;;;;;;;4.32;100.00;99836.63;5072363;28;870;-58
2023/03/04 01:16:55;;;;;;;;;;;;;;;4.15;100.00;99827.66;5072271;28;823;-58
2023/03/04 01:19:22;;;;;;;;;;;;;;;4.00;100.00;99834.78;5072232;28;2004;-58
2023/03/04 01:21:48;;;;;;;;;;;;;;;3.86;100.00;99837.19;5072238;28;863;-58
2023/03/04 01:24:15;;;;;;;;;;;;;;;3.72;100.00;99837.66;5072017;28;898;-58
2023/03/04 01:26:41;;;;;;;;;;;;;;;3.55;100.00;99833.38;5072150;28;868;-58
2023/03/04 01:29:08;;;;;;;;;;;;;;;3.34;100.00;99836.38;5072377;28;871;-58
2023/03/04 01:31:35;;;;;;;;;;;;;;;3.17;100.00;99834.78;5071283;28;840;-58
2023/03/04 01:34:01;;;;;;;;;;;;;;;3.02;100.00;99836.34;5054020;28;1453;-58
2023/03/04 01:36:27;;;;;;;;;;;;;;;2.90;100.00;99833.69;5072032;28;819;-58
2023/03/04 01:38:54;;;;;;;;;;;;;;;2.80;100.00;99839.66;5071856;28;814;-58
2023/03/04 01:41:24;;;;;;;;;;;;;;;2.77;100.00;99843.88;5071839;28;1906;-58
2023/03/04 01:43:51;;;;;;;;;;;;;;;2.77;100.00;99843.09;5072114;28;890;-58
2023/03/04 01:46:19;;;;;;;;;;;;;;;2.81;100.00;99841.25;5071744;28;808;-58
2023/03/04 01:48:46;;;;;;;;;;;;;;;2.87;100.00;99842.59;5071754;28;847;-58
2023/03/04 01:51:15;;;;;;;;;;;;;;;2.91;100.00;99834.50;5071685;28;887;-58
2023/03/04 01:53:44;;;;;;;;;;;;;;;2.96;100.00;99836.97;5071645;28;898;-58
2023/03/04 01:56:21;;;;;;;;;;;;;;;3.07;100.00;99835.28;5071699;28;816;-58
2023/03/04 01:59:06;;;;;;;;;;;;;;;3.18;100.00;99825.44;5071647;28;816;-58
2023/03/04 02:01:33;;;;;;;;;;;;;;;3.30;100.00;99832.75;5071582;28;1906;-58
2023/03/04 02:03:59;;;;;;;;;;;;;;;3.42;100.00;99842.81;5071608;28;952;-58
2023/03/04 02:06:26;;;;;;;;;;;;;;;3.52;100.00;99847.75;5071575;28;796;-58
2023/03/04 02:08:52;;;;;;;;;;;;;;;3.63;100.00;99851.53;5071805;28;975;-58
2023/03/04 02:11:18;;;;;;;;;;;;;;;3.75;100.00;99850.59;5071366;28;1326;-58
2023/03/04 02:13:45;;;;;;;;;;;;;;;3.89;100.00;99858.38;5071503;28;824;-58
2023/03/04 02:16:11;;;;;;;;;;;;;;;4.01;100.00;99860.19;5071715;28;844;-58
2023/03/04 02:18:37;;;;;;;;;;;;;;;4.07;100.00;99859.53;5071593;28;875;-58
2023/03/04 02:21:10;;;;;;;;;;;;;;;4.13;100.00;99865.53;5072286;28;1914;-58
2023/03/04 02:23:43;;;;;;;;;;;;;;;4.20;100.00;99865.69;5071224;28;831;-58
2023/03/04 02:26:09;;;;;;;;;;;;;;;4.30;100.00;99867.06;5071426;28;864;-58
2023/03/04 02:28:36;;;;;;;;;;;;;;;4.35;100.00;99874.19;5071348;28;887;-58
2023/03/04 02:31:03;;;;;;;;;;;;;;;4.38;100.00;99874.28;5071285;28;839;-58
2023/03/04 02:33:29;;;;;;;;;;;;;;;4.43;100.00;99865.00;5071420;28;863;-58
2023/03/04 02:35:55;;;;;;;;;;;;;;;4.46;100.00;99865.06;5071291;28;824;-58
2023/03/04 02:38:22;;;;;;;;;;;;;;;4.47;100.00;99866.66;5071272;28;875;-58
2023/03/04 02:40:50;;;;;;;;;;;;;;;4.44;100.00;99874.81;5071146;28;1945;-58
2023/03/04 02:43:17;;;;;;;;;;;;;;;4.39;100.00;99873.13;5074019;28;875;-58
2023/03/04 02:45:45;;;;;;;;;;;;;;;4.39;100.00;99870.38;5075212;28;844;-58
2023/03/04 02:48:12;;;;;;;;;;;;;;;4.36;100.00;99870.31;5075211;28;902;-58
2023/03/04 02:50:47;;;;;;;;;;;;;;;4.34;100.00;99870.69;5075081;28;816;-58
2023/03/04 02:53:14;;;;;;;;;;;;;;;4.37;100.00;99872.69;5075016;28;843;-58
2023/03/04 02:55:45;;;;;;;;;;;;;;;4.40;100.00;99869.25;5075048;28;843;-58
2023/03/04 02:58:11;;;;;;;;;;;;;;;4.43;100.00;99875.94;5075329;28;934;-58
2023/03/04 03:00:38;;;;;;;;;;;;;;;4.47;100.00;99872.13;5075148;28;1945;-58
2023/03/04 03:03:06;;;;;;;;;;;;;;;4.52;100.00;99873.78;5075097;28;883;-58
2023/03/04 03:05:35;;;;;;;;;;;;;;;4.58;100.00;99875.06;5075186;28;875;-58
2023/03/04 03:08:01;;;;;;;;;;;;;;;4.60;100.00;99881.00;5074711;28;985;-58
2023/03/04 03:10:28;;;;;;;;;;;;;;;4.63;100.00;99874.81;5044140;28;1299;-58
2023/03/04 03:12:54;;;;;;;;;;;;;;;4.69;100.00;99884.31;5034909;28;808;-58
2023/03/04 03:15:20;;;;;;;;;;;;;;;4.76;100.00;99882.84;5034863;28;902;-58
2023/03/04 03:17:47;;;;;;;;;;;;;;;4.81;100.00;99877.88;5034934;28;879;-58
2023/03/04 03:20:14;;;;;;;;;;;;;;;4.84;100.00;99879.91;5035147;28;1970;-58
2023/03/04 03:22:41;;;;;;;;;;;;;;;4.88;100.00;99885.44;5034809;28;906;-58
2023/03/04 03:25:09;;;;;;;;;;;;;;;4.90;100.00;99877.66;5034888;28;808;-58
2023/03/04 03:27:35;;;;;;;;;;;;;;;4.93;100.00;99878.88;5033424;28;942;-58
2023/03/04 03:30:03;;;;;;;;;;;;;;;4.87;100.00;99883.88;5034774;28;879;-58
2023/03/04 03:32:29;;;;;;;;;;;;;;;4.80;100.00;99880.97;5034924;28;881;-58
2023/03/04 03:34:55;;;;;;;;;;;;;;;4.77;100.00;99868.03;5034642;28;895;-58
2023/03/04 03:37:22;;;;;;;;;;;;;;;4.71;100.00;99870.25;5034425;28;864;-58
2023/03/04 03:39:48;;;;;;;;;;;;;;;4.63;100.00;99869.34;5035015;28;1961;-58
2023/03/04 03:42:15;;;;;;;;;;;;;;;4.59;100.00;99863.00;5034138;28;804;-58
2023/03/04 03:44:41;;;;;;;;;;;;;;;4.58;100.00;99866.88;5034272;28;902;-58
2023/03/04 03:47:08;;;;;;;;;;;;;;;4.62;100.00;99861.47;5034166;28;827;-58
2023/03/04 03:49:34;;;;;;;;;;;;;;;4.67;100.00;99869.38;5034130;28;840;-58
2023/03/04 03:52:01;;;;;;;;;;;;;;;4.68;100.00;99863.56;5033964;28;820;-58
2023/03/04 03:54:28;;;;;;;;;;;;;;;4.68;100.00;99860.81;5033376;28;894;-58
2023/03/04 03:56:54;;;;;;;;;;;;;;;4.67;100.00;99859.25;5033906;28;860;-58
2023/03/04 03:59:22;;;;;;;;;;;;;;;4.66;100.00;99846.69;5033887;28;1881;-58
2023/03/04 04:01:49;;;;;;;;;;;;;;;4.66;100.00;99854.13;5033909;28;883;-58
2023/03/04 04:04:16;;;;;;;;;;;;;;;4.66;100.00;99857.66;5033826;28;883;-58
2023/03/04 04:06:43;;;;;;;;;;;;;;;4.67;100.00;99859.25;5033782;28;860;-58
2023/03/04 04:09:10;;;;;;;;;;;;;;;4.66;100.00;99851.38;5033982;28;936;-58
2023/03/04 04:11:37;;;;;;;;;;;;;;;4.65;100.00;99860.75;5070938;28;1327;-58
2023/03/04 04:14:03;;;;;;;;;;;;;;;4.65;100.00;99861.56;5073574;28;898;-58
2023/03/04 04:16:29;;;;;;;;;;;;;;;4.69;100.00;99873.38;5073600;28;819;-58
2023/03/04 04:18:56;;;;;;;;;;;;;;;4.73;100.00;99870.69;5073436;28;899;-58
2023/03/04 04:21:22;;;;;;;;;;;;;;;4.78;100.00;99881.38;5073293;28;2076;-58
2023/03/04 04:23:49;;;;;;;;;;;;;;;4.82;100.00;99886.88;5073400;28;855;-58
2023/03/04 04:26:15;;;;;;;;;;;;;;;4.84;100.00;99888.13;5073363;28;860;-58
2023/03/04 04:28:42;;;;;;;;;;;;;;;4.87;100.00;99881.91;5073341;28;839;-58
2023/03/04 04:31:08;;;;;;;;;;;;;;;4.87;100.00;99889.34;5073319;28;894;-58
2023/03/04 04:33:36;;;;;;;;;;;;;;;4.86;100.00;99888.53;5073128;28;868;-58
2023/03/04 04:36:03;;;;;;;;;;;;;;;4.87;100.00;99895.63;5073433;28;864;-58
2023/03/04 04:38:30;;;;;;;;;;;;;;;4.87;100.00;99898.34;5073134;28;852;-58
2023/03/04 04:40:57;;;;;;;;;;;;;;;4.85;100.00;99891.66;5072942;28;1885;-58
2023/03/04 04:43:24;;;;;;;;;;;;;;;4.82;100.00;99890.44;5073030;28;835;-58
2023/03/04 04:45:50;;;;;;;;;;;;;;;4.84;100.00;99896.34;5072969;28;816;-58
2023/03/04 04:48:17;;;;;;;;;;;;;;;4.86;100.00;99902.22;5072900;28;847;-58
2023/03/04 04:50:44;;;;;;;;;;;;;;;4.89;100.00;99890.56;5072783;28;870;-58
2023/03/04 04:53:11;;;;;;;;;;;;;;;4.93;100.00;99898.06;5072891;28;903;-58
2023/03/04 04:55:37;;;;;;;;;;;;;;;4.97;100.00;99898.91;5054743;28;1438;-58
2023/03/04 04:58:05;;;;;;;;;;;;;;;4.98;100.00;99895.81;5072759;28;851;-58
2023/03/04 05:00:32;;;;;;;;;;;;;;;4.98;100.00;99901.31;5072613;28;1894;-58
2023/03/04 05:02:59;;;;;;;;;;;;;;;4.97;100.00;99898.91;5072624;28;828;-58
2023/03/04 05:05:26;;;;;;;;;;;;;;;4.95;100.00;99895.75;5072866;28;823;-58
2023/03/04 05:07:52;;;;;;;;;;;;;;;4.90;100.00;99888.63;5072487;28;1028;-58
2023/03/04 05:10:19;;;;;;;;;;;;;;;4.85;100.00;99892.44;5072278;28;1225;-58
2023/03/04 05:12:46;;;;;;;;;;;;;;;4.84;100.00;99890.88;5072373;28;946;-58
2023/03/04 05:15:12;;;;;;;;;;;;;;;4.86;100.00;99895.97;5072659;28;820;-58
2023/03/04 05:17:38;;;;;;;;;;;;;;;4.91;100.00;99901.97;5072295;28;840;-58
2023/03/04 05:20:06;;;;;;;;;;;;;;;4.98;100.00;99895.03;5072194;28;1973;-58
2023/03/04 05:22:32;;;;;;;;;;;;;;;5.05;100.00;99901.44;5072227;28;788;-58
2023/03/04 05:24:58;;;;;;;;;;;;;;;5.13;100.00;99904.31;5072134;28;906;-58
2023/03/04 05:27:25;;;;;;;;;;;;;;;5.14;100.00;99901.19;5072161;28;812;-58
2023/03/04 05:29:54;;;;;;;;;;;;;;;5.13;100.00;99896.09;5072057;28;918;-58
2023/03/04 05:32:20;;;;;;;;;;;;;;;5.16;100.00;99895.34;5072060;28;831;-58
2023/03/04 05:34:47;;;;;;;;;;;;;;;5.21;100.00;99895.06;5072032;28;832;-58
2023/03/04 05:37:13;;;;;;;;;;;;;;;5.24;100.00;99897.84;5071972;28;820;-58
2023/03/04 05:39:40;;;;;;;;;;;;;;;5.32;100.00;99905.06;5072073;28;1956;-58
2023/03/04 05:42:07;;;;;;;;;;;;;;;5.47;100.00;99895.13;5072131;28;902;-58
2023/03/04 05:44:33;;;;;;;;;;;;;;;5.59;100.00;99896.91;5071863;28;824;-58
2023/03/04 05:47:00;;;;;;;;;;;;;;;5.70;100.00;99891.59;5071796;28;836;-58
2023/03/04 05:49:27;;;;;;;;;;;;;;;5.79;100.00;99905.06;5071624;28;879;-58
2023/03/04 05:51:54;;;;;;;;;;;;;;;5.85;100.00;99903.59;5071961;28;890;-58
2023/03/04 05:54:20;;;;;;;;;;;;;;;5.88;100.00;99911.06;5071675;28;946;-58
2023/03/04 05:56:50;;;;;;;;;;;;;;;5.84;100.00;99913.75;5071720;28;859;-58
2023/03/04 05:59:19;;;;;;;;;;;;;;;5.81;100.00;99913.72;5071693;28;886;-58
2023/03/04 06:01:46;;;;;;;;;;;;;;;5.72;100.00;99903.00;5071577;28;907;-58
2023/03/04 06:04:13;;;;;;;;;;;;;;;5.74;100.00;99917.13;5071597;28;887;-58
2023/03/04 06:06:39;;;;;;;;;;;;;;;5.75;100.00;99915.97;5071537;28;812;-58
2023/03/04 06:09:05;;;;;;;;;;;;;;;5.72;100.00;99909.28;5071810;28;886;-58
2023/03/04 06:11:32;;;;;;;;;;;;;;;5.75;100.00;99906.97;5071309;28;1374;-58
2023/03/04 06:13:58;;;;;;;;;;;;;;;5.75;100.00;99905.00;5071571;28;910;-58
2023/03/04 06:16:24;;;;;;;;;;;;;;;5.75;100.00;99907.75;5071238;28;844;-58
2023/03/04 06:18:50;;;;;;;;;;;;;;;5.79;100.00;99902.31;5071118;28;862;-58
2023/03/04 06:21:17;;;;;;;;;;;;;;;5.81;100.00;99897.25;5071375;28;1971;-58
2023/03/04 06:23:44;;;;;;;;;;;;;;;5.89;100.00;99904.44;5071340;28;938;-58
2023/03/04 06:26:14;;;;;;;;;;;;;;;5.98;100.00;99898.72;5071365;28;910;-58
2023/03/04 06:28:43;;;;;;;;;;;;;;;6.13;100.00;99898.56;5071352;28;820;-58
2023/03/04 06:31:09;;;;;;;;;;;;;;;6.40;100.00;99901.28;5071306;28;894;-58
2023/03/04 06:33:36;;;;;;;;;;;;;;;6.64;100.00;99911.00;5071304;28;839;-58
2023/03/04 06:36:03;;;;;;;;;;;;;;;6.78;100.00;99910.38;5071519;28;883;-58
2023/03/04 06:38:30;;;;;;;;;;;;;;;6.88;100.00;99906.97;5071281;28;843;-58
2023/03/04 06:40:56;;;;;;;;;;;;;;;6.93;100.00;99914.09;5071126;28;1886;-58
2023/03/04 06:43:22;;;;;;;;;;;;;;;6.91;100.00;99909.00;5071227;28;831;-58
2023/03/04 06:45:50;;;;;;;;;;;;;;;6.98;100.00;99911.03;5071215;28;855;-58
2023/03/04 06:48:22;;;;;;;;;;;;;;;7.01;100.00;99910.25;5071103;28;982;-58
2023/03/04 06:50:49;;;;;;;;;;;;;;;6.97;100.00;99908.66;5053156;28;892;-58
2023/03/04 06:53:15;;;;;;;;;;;;;;;6.93;100.00;99916.84;5071078;28;831;-58
2023/03/04 06:55:45;;;;;;;;;;;;;;;6.99;100.00;99912.59;5071063;28;882;-58
2023/03/04 06:58:12;;;;;;;;;;;;;;;7.13;100.00;99918.25;5052950;28;1391;-58
2023/03/04 07:00:39;;;;;;;;;;;;;;;7.16;100.00;99914.75;5053022;28;1894;-58
2023/03/04 07:03:05;;;;;;;;;;;;;;;7.12;100.00;99915.88;5070976;28;871;-58
2023/03/04 07:05:32;;;;;;;;;;;;;;;7.15;100.00;99924.19;5071024;28;796;-58
2023/03/04 07:07:58;;;;;;;;;;;;;;;7.29;100.00;99919.97;5070932;28;1011;-58
2023/03/04 07:10:25;;;;;;;;;;;;;;;7.39;100.00;99922.06;5070588;28;1196;-57
2023/03/04 07:12:52;;;;;;;;;;;;;;;7.44;100.00;99916.19;5070930;28;820;-58
2023/03/04 07:15:20;;;;;;;;;;;;;;;7.64;100.00;99919.53;5070922;28;874;-57
2023/03/04 07:17:46;;;;;;;;;;;;;;;7.71;100.00;99908.59;5070787;28;926;-58
2023/03/04 07:20:12;;;;;;;;;;;;;;;7.67;100.00;99916.03;5070767;28;1930;-58
2023/03/04 07:22:39;;;;;;;;;;;;;;;7.70;100.00;99911.72;5070857;28;863;-57
2023/03/04 07:25:05;;;;;;;;;;;;;;;7.69;100.00;99908.19;5070753;28;851;-58
2023/03/04 07:27:32;;;;;;;;;;;;;;;7.63;100.00;99904.19;5070782;28;824;-58
2023/03/04 07:29:58;;;;;;;;;;;;;;;7.71;100.00;99899.56;5072839;28;855;-58
2023/03/04 07:32:24;;;;;;;;;;;;;;;7.75;100.00;99901.16;5074368;28;886;-57
2023/03/04 07:34:50;;;;;;;;;;;;;;;7.97;100.00;99887.56;5074285;28;841;-57
2023/03/04 07:37:17;;;;;;;;;;;;;;;8.16;100.00;99876.28;5074336;28;1051;-58
2023/03/04 07:39:44;;;;;;;;;;;;;;;8.40;100.00;99874.03;5074169;28;1902;-57
2023/03/04 07:42:11;;;;;;;;;;;;;;;8.75;100.00;99870.69;5074198;28;930;-58
2023/03/04 07:44:37;;;;;;;;;;;;;;;8.89;100.00;99878.22;5074144;28;878;-58
2023/03/04 07:47:04;;;;;;;;;;;;;;;8.96;100.00;99877.44;5073995;28;894;-58
2023/03/04 07:49:31;;;;;;;;;;;;;;;8.96;100.00;99882.94;5074055;28;848;-58
2023/03/04 07:51:57;;;;;;;;;;;;;;;9.03;100.00;99885.75;5074064;28;887;-57
2023/03/04 07:54:24;;;;;;;;;;;;;;;9.14;100.00;99877.50;5074027;28;824;-57
2023/03/04 07:56:52;;;;;;;;;;;;;;;9.32;100.00;99883.03;5073902;28;842;-57
2023/03/04 07:59:18;;;;;;;;;;;;;;;9.62;100.00;99885.41;5073980;28;836;-57
2023/03/04 08:02:12;;;;;;;;;;;;;;;9.87;100.00;99887.41;5073772;28;1890;-57
2023/03/04 08:04:38;;;;;;;;;;;;;;;10.10;100.00;99895.28;5073745;28;847;-57
2023/03/04 08:07:05;;;;;;;;;;;;;;;10.11;100.00;99902.34;5073962;28;887;-57
2023/03/04 08:09:32;;;;;;;;;;;;;;;10.09;100.00;99890.91;5055326;28;1484;-57
2023/03/04 08:11:58;;;;;;;;;;;;;;;10.09;100.00;99893.69;5073662;28;816;-57
2023/03/04 08:14:25;;;;;;;;;;;;;;;9.98;100.00;99901.97;5073603;28;827;-57
2023/03/04 08:16:58;;;;;;;;;;;;;;;10.02;100.00;99898.00;5073430;28;840;-58
2023/03/04 08:19:25;;;;;;;;;;;;;;;10.11;100.00;99902.34;5055542;28;1262;-57
2023/03/04 08:21:52;;;;;;;;;;;;;;;10.10;100.00;99907.09;5073425;28;836;-57
2023/03/04 08:24:19;;;;;;;;;;;;;;;10.10;100.00;99909.06;5073398;28;808;-57
2023/03/04 08:26:46;;;;;;;;;;;;;;;10.44;100.00;99906.66;5073366;28;844;-57
2023/03/04 08:29:16;;;;;;;;;;;;;;;10.43;100.00;99905.06;5073353;28;926;-57
2023/03/04 08:31:45;;;;;;;;;;;;;;;10.55;100.00;99903.88;5055855;28;1233;-57
2023/03/04 08:34:12;;;;;;;;;;;;;;;10.76;100.00;99905.78;5073504;28;851;-57
2023/03/04 08:36:38;;;;;;;;;;;;;;;10.65;100.00;99899.47;5073375;28;835;-58
2023/03/04 08:39:05;;;;;;;;;;;;;;;10.72;100.00;99907.75;5073742;28;859;-57
2023/03/04 08:41:32;;;;;;;;;;;;;;;10.70;100.00;99901.84;5072953;28;1953;-58
2023/03/04 08:43:59;;;;;;;;;;;;;;;10.53;100.00;99900.72;5073224;28;891;-58
2023/03/04 08:46:25;;;;;;;;;;;;;;;10.63;100.00;99908.97;5073700;28;831;-58
2023/03/04 08:48:52;;;;;;;;;;;;;;;10.73;100.00;99909.31;5073183;28;816;-58
2023/03/04 08:51:19;;;;;;;;;;;;;;;10.71;100.00;99906.16;5073270;28;847;-58
2023/03/04 08:53:45;;;;;;;;;;;;;;;10.65;100.00;99905.81;5072843;28;848;-58
2023/03/04 08:56:12;;;;;;;;;;;;;;;10.62;100.00;99890.81;5072742;28;895;-58
2023/03/04 08:58:39;;;;;;;;;;;;;;;10.65;100.00;99891.19;5072698;28;902;-58
2023/03/04 09:01:09;;;;;;;;;;;;;;;10.73;100.00;99885.25;5072603;28;1889;-58
2023/03/04 09:03:34;;;;;;;;;;;;;;;10.57;100.00;99880.16;5072881;28;819;-58
2023/03/04 09:06:02;;;;;;;;;;;;;;;10.62;100.00;99887.25;5072992;28;823;-58
2023/03/04 09:08:29;;;;;;;;;;;;;;;10.67;100.00;99873.03;5072971;28;1005;-58
2023/03/04 09:10:55;;;;;;;;;;;;;;;10.87;100.00;99872.53;5072651;28;1272;-58
2023/03/04 09:13:22;;;;;;;;;;;;;;;11.19;100.00;99872.34;5072843;28;875;-58
2023/03/04 09:15:50;;;;;;;;;;;;;;;11.23;100.00;99871.13;5073001;28;784;-58
2023/03/04 09:18:25;;;;;;;;;;;;;;;11.29;100.00;99865.16;5072922;28;824;-58
2023/03/04 09:20:54;;;;;;;;;;;;;;;11.23;100.00;99862.84;5054228;28;1913;-58
2023/03/04 09:23:21;;;;;;;;;;;;;;;10.88;100.00;99858.31;5072225;28;820;-58
2023/03/04 09:25:48;;;;;;;;;;;;;;;10.76;100.00;99844.94;5072220;28;863;-58
2023/03/04 09:28:15;;;;;;;;;;;;;;;10.68;100.00;99848.94;5072188;28;836;-58
2023/03/04 09:30:42;;;;;;;;;;;;;;;10.95;100.00;99846.44;5072036;28;883;-58
2023/03/04 09:33:08;;;;;;;;;;;;;;;11.37;100.00;99833.50;5072148;28;890;-58
2023/03/04 09:35:35;;;;;;;;;;;;;;;11.48;100.00;99839.75;5071975;28;867;-58
2023/03/04 09:38:02;;;;;;;;;;;;;;;11.29;100.00;99837.50;5071971;28;855;-58
2023/03/04 10:09:19;;;;;;;;;;;;;;;11.58;100.00;99811.16;6014248;22;1525;-69
2023/03/04 10:11:46;;;;;;;;;;;;;;;12.10;100.00;99801.19;5091879;28;846;-67
2023/03/04 10:14:16;;;;;;;;;;;;;;;12.44;100.00;99784.59;5092301;28;810;-63
2023/03/04 10:16:46;;;;;;;;;;;;;;;12.82;100.00;99784.44;5091690;28;873;-64
2023/03/04 10:19:31;;;;;;;;;;;;;;;13.19;100.00;99771.63;5091816;28;877;-64
2023/03/04 10:21:58;;;;;;;;;;;;;;;12.96;100.00;99775.13;5091715;28;882;-67
2023/03/04 10:24:33;;;;;;;;;;;;;;;12.54;100.00;99769.78;5091518;28;1165;-67
2023/03/04 10:27:05;;;;;;;;;;;;;;;12.06;100.00;99770.78;5090328;28;1397;-69
2023/03/04 10:29:32;;;;;;;;;;;;;;;11.65;100.00;99769.59;5091862;28;885;-68
2023/03/04 10:31:59;;;;;;;;;;;;;;;11.59;100.00;99757.38;5091558;28;909;-69
2023/03/04 10:34:25;;;;;;;;;;;;;;;12.21;100.00;99755.56;5091585;28;1079;-69
2023/03/04 10:37:00;;;;;;;;;;;;;;;12.18;100.00;99755.59;5091551;28;890;-69
2023/03/04 10:39:37;;;;;;;;;;;;;;;11.80;100.00;99741.75;5091555;28;867;-69
2023/03/04 10:42:22;;;;;;;;;;;;;;;11.63;100.00;99738.75;5091524;28;933;-70
2023/03/04 10:44:54;;;;;;;;;;;;;;;11.81;100.00;99740.56;5091477;28;858;-69
2023/03/04 10:47:22;;;;;;;;;;;;;;;11.83;100.00;99733.41;5090143;28;1174;-70
2023/03/04 10:49:55;;;;;;;;;;;;;;;11.76;100.00;99727.94;5091460;28;897;-68
2023/03/04 10:52:28;;;;;;;;;;;;;;;11.89;100.00;99727.47;5091820;28;811;-69
2023/03/04 10:54:57;;;;;;;;;;;;;;;12.08;100.00;99718.50;5091411;28;878;-69
2023/03/04 10:57:29;;;;;;;;;;;;;;;12.19;100.00;99710.06;5091527;28;870;-70
2023/03/04 10:59:59;;;;;;;;;;;;;;;12.32;100.00;99707.53;5091233;28;1882;-69
2023/03/04 11:02:26;;;;;;;;;;;;;;;12.48;100.00;99706.91;5091226;28;851;-70
2023/03/04 11:05:11;;;;;;;;;;;;;;;12.51;100.00;99704.09;5095097;28;902;-70
2023/03/04 11:07:41;;;;;;;;;;;;;;;12.58;100.00;99703.19;5095012;28;950;-70
2023/03/04 11:10:29;;;;;;;;;;;;;;;12.63;100.00;99694.38;5094916;28;1392;-71
2023/03/04 11:12:58;;;;;;;;;;;;;;;12.54;100.00;99694.13;5094822;28;1063;-70
2023/03/04 11:15:26;;;;;;;;;;;;;;;12.81;100.00;99688.59;5095054;28;839;-70
2023/03/04 11:18:09;;;;;;;;;;;;;;;12.77;100.00;99691.41;5094981;28;818;-69
2023/03/04 11:20:39;;;;;;;;;;;;;;;12.84;100.00;99684.97;5093597;28;1971;-70
2023/03/04 11:23:11;;;;;;;;;;;;;;;12.86;100.00;99677.78;5094871;28;958;-70
2023/03/04 11:25:43;;;;;;;;;;;;;;;12.97;100.00;99679.59;5095146;28;835;-69
2023/03/04 11:28:13;;;;;;;;;;;;;;;12.78;100.00;99670.81;5094854;28;851;-68
2023/03/04 11:30:45;;;;;;;;;;;;;;;12.58;100.00;99676.25;5094786;28;929;-69
2023/03/04 11:33:16;;;;;;;;;;;;;;;12.51;100.00;99672.81;5094774;28;827;-68
2023/03/04 11:35:51;;;;;;;;;;;;;;;12.35;100.00;99676.19;5094652;28;870;-69
2023/03/04 11:38:23;;;;;;;;;;;;;;;12.24;100.00;99673.56;5094591;28;886;-70
2023/03/04 11:41:01;;;;;;;;;;;;;;;12.30;100.00;99666.38;5094527;28;1881;-69
2023/03/04 11:43:33;;;;;;;;;;;;;;;12.60;100.00;99670.28;5095120;28;799;-70
2023/03/04 11:46:18;;;;;;;;;;;;;;;12.62;100.00;99673.44;5094457;28;905;-70
2023/03/04 11:48:53;;;;;;;;;;;;;;;12.56;100.00;99677.88;5094603;28;889;-69
2023/03/04 11:51:39;;;;;;;;;;;;;;;12.37;100.00;99673.78;5094450;28;874;-68
2023/03/04 11:54:27;;;;;;;;;;;;;;;12.42;100.00;99676.88;5094348;28;925;-69
2023/03/04 11:57:12;;;;;;;;;;;;;;;12.37;100.00;99677.34;5093008;28;1274;-67
2023/03/04 11:59:44;;;;;;;;;;;;;;;12.59;100.00;99669.50;5094243;28;1894;-70
2023/03/04 12:02:15;;;;;;;;;;;;;;;13.00;100.00;99664.91;5094178;28;863;-69
2023/03/04 12:05:08;;;;;;;;;;;;;;;13.14;100.00;99672.19;5094179;28;838;-70
2023/03/04 12:07:45;;;;;;;;;;;;;;;13.25;100.00;99662.47;5092098;28;1055;-69
2023/03/04 12:10:29;;;;;;;;;;;;;;;13.78;100.00;99659.88;5093783;28;1216;-70
2023/03/04 12:13:13;;;;;;;;;;;;;;;13.86;96.50;99666.09;5094016;28;846;-70
2023/03/04 12:15:42;;;;;;;;;;;;;;;13.72;91.38;99663.59;5093504;28;838;-69
2023/03/04 12:18:08;;;;;;;;;;;;;;;14.18;90.63;99650.75;5094146;28;862;-70
2023/03/04 12:20:53;;;;;;;;;;;;;;;14.40;87.89;99659.38;5094232;28;1976;-67
2023/03/04 12:23:35;;;;;;;;;;;;;;;14.66;88.22;99654.84;5093825;28;897;-68
2023/03/04 12:26:02;;;;;;;;;;;;;;;14.19;87.13;99652.28;5092415;28;1453;-70
2023/03/04 12:28:31;;;;;;;;;;;;;;;13.53;88.96;99645.72;5093687;28;886;-70
2023/03/04 12:31:00;;;;;;;;;;;;;;;13.32;93.08;99639.38;5093629;28;827;-69
2023/03/04 12:33:53;;;;;;;;;;;;;;;13.37;93.59;99638.88;5092406;28;905;-69
2023/03/04 12:36:39;;;;;;;;;;;;;;;13.02;93.59;99643.06;5077646;28;1171;-68
2023/03/04 12:39:24;;;;;;;;;;;;;;;12.77;95.08;99644.25;5093477;28;819;-69
2023/03/04 12:42:09;;;;;;;;;;;;;;;12.72;98.45;99630.09;5093433;28;1882;-67
2023/03/04 12:44:58;;;;;;;;;;;;;;;12.47;98.92;99631.28;5093355;28;879;-70
2023/03/04 12:47:35;;;;;;;;;;;;;;;12.43;99.23;99631.31;5087435;28;1374;-69
2023/03/04 12:50:20;;;;;;;;;;;;;;;12.51;99.96;99620.13;5093320;28;878;-69
2023/03/04 12:52:56;;;;;;;;;;;;;;;12.55;100.00;99621.66;5093351;28;863;-67
2023/03/04 12:55:28;;;;;;;;;;;;;;;12.50;99.53;99618.56;5093297;28;851;-68
2023/03/04 12:57:54;;;;;;;;;;;;;;;12.56;99.57;99616.88;5093058;28;875;-67
2023/03/04 13:00:43;;;;;;;;;;;;;;;12.65;100.00;99614.34;5093161;28;1906;-67
2023/03/04 13:03:17;;;;;;;;;;;;;;;12.59;99.21;99611.28;5091289;28;1244;-69
2023/03/04 13:05:57;;;;;;;;;;;;;;;12.78;99.84;99601.47;5093149;28;854;-68
2023/03/04 13:08:26;;;;;;;;;;;;;;;13.13;99.26;99604.81;5093229;28;928;-67
2023/03/04 13:10:59;;;;;;;;;;;;;;;13.40;98.12;99601.16;5092609;28;1374;-68
2023/03/04 13:13:32;;;;;;;;;;;;;;;13.85;98.15;99595.88;5093033;28;839;-69
2023/03/04 13:16:21;;;;;;;;;;;;;;;14.31;94.14;99601.59;5092857;28;886;-68
2023/03/04 13:18:48;;;;;;;;;;;;;;;14.32;93.50;99603.16;5087388;28;1252;-68
2023/03/04 13:21:15;;;;;;;;;;;;;;;14.17;95.04;99597.16;5092575;28;1905;-68
2023/03/04 13:23:41;;;;;;;;;;;;;;;14.03;95.15;99589.13;5092607;28;878;-68
2023/03/04 13:26:08;;;;;;;;;;;;;;;13.75;96.52;99587.75;5092063;28;930;-68
2023/03/04 13:28:35;;;;;;;;;;;;;;;14.03;98.54;99580.78;5092107;28;882;-69
2023/03/04 13:31:16;;;;;;;;;;;;;;;14.10;97.73;99583.41;5092579;28;867;-69
2023/03/04 13:33:48;;;;;;;;;;;;;;;13.55;95.85;99585.78;5092730;28;1268;-69
2023/03/04 13:36:28;;;;;;;;;;;;;;;13.39;98.98;99589.25;5092238;28;839;-69
2023/03/04 13:39:25;;;;;;;;;;;;;;;13.17;99.02;99583.31;5092336;28;858;-69
2023/03/04 13:41:52;;;;;;;;;;;;;;;13.01;100.00;99574.91;5083224;28;1886;-68